Flight Track Log - Related Links

Times and Time Zones

All times are in EDT time to prevent confusion due to time zone crossing. See the EJA987 flight status page for this flight to view local times or setup timezone preferences in your user account.

Time Position Orientation Groundspeed Altitude Reporting Facility
EDT Latitude Longitude Course Direction KTS MPH feet Rate Location/Type
Sat 11:12:58 AM 37.4667 -77.3167 270° West 214 246 2,100  Level Potomac TRACON
Sat 11:13:58 AM 37.4667 -77.3667 270° West 255 293 5,000 2,797 Climbing Potomac TRACON
Sat 11:15:11 AM 37.5569 -77.4019 343° North 314 361 8,300 1,805 Climbing Washington Center
Sat 11:16:11 AM 37.6336 -77.4353 341° North 308 354 9,000 800 Climbing Washington Center
Sat 11:17:11 AM 37.7142 -77.4714 340° North 302 348 9,900 496 Climbing Washington Center
Sat 11:18:12 AM 37.7931 -77.5050 341° North 302 348 10,000 50 Climbing Washington Center
Sat 11:19:10 AM 37.8717 -77.5383 341° North 297 342 10,000  Level Washington Center
Sat 11:20:10 AM 37.9483 -77.5667 344° North 297 342 10,000  Level Washington Center
Sat 11:21:11 AM 38.0136 -77.5422 16° North 281 323 10,000  Level Washington Center
Sat 11:22:11 AM 38.1019 -77.4942 23° Northeast 290 334 10,000  Level Washington Center
Sat 11:23:12 AM 38.1819 -77.4461 25° Northeast 301 346 10,000 -454 Level Washington Center
Sat 11:24:10 AM 38.2617 -77.4006 24° Northeast 311 358 9,100 -1,017 Descending Washington Center
Sat 11:25:10 AM 38.3375 -77.3572 24° Northeast 311 358 8,000 -1,041 Descending Washington Center
Sat 11:26:11 AM 38.4208 -77.3592 359° North 293 337 7,000 -984 Descending Washington Center
Sat 11:27:12 AM 38.5000 -77.3611 359° North 293 337 6,000 -1,008 Descending Washington Center
Sat 11:28:10 AM 38.5833 -77.3683 356° North 293 337 5,000 -508 Descending Washington Center
Sat 11:29:10 AM 38.6564 -77.3650 North 283 326 5,000 -202 Level Washington Center
Sat 11:30:09 AM 38.7333 -77.3667 359° North 270 311 4,600 -504 Descending Potomac TRACON
Sat 11:31:09 AM 38.8167 -77.3500 North 265 305 4,000 -550 Descending Potomac TRACON
Sat 11:32:09 AM 38.8833 -77.3500 360° North 245 282 3,500 -476 Descending Potomac TRACON
Sat 11:33:15 AM 38.9667 -77.3500 360° North 264 304 3,000 -250 Descending Potomac TRACON
Sat 11:34:09 AM 39.0333 -77.3500 360° North 229 264 3,000 -417 Level Potomac TRACON
Sat 11:35:10 AM 39.0500 -77.4000 293° West 197 227 2,200 -810 Descending Potomac TRACON
Sat 11:36:15 AM 39.0000 -77.4333 207° Southwest 170 196 1,300 -762 Descending Potomac TRACON
Sat 11:37:16 AM 38.9667 -77.4333 180° South 147 169 600 -689 Descending Potomac TRACON
Sat 11:39:00 AM 38.9474 -77.4599 195° South  Level Estimated
Sat 11:46:00 AM 38.9474 -77.4599 195° South  Level Estimated
Sat 11:47:00 AM 38.9474 -77.4599 195° South  Level Estimated
Sat 11:48:00 AM 38.9474 -77.4599 195° South  Level Estimated

Login

Don't have an account? Register now (free) for customized features, flight alerts, and more!